sensor_id;sensor_type;location;lat;lon;timestamp;P1;durP1;ratioP1;P2;durP2;ratioP2
29370;SDS011;16357;52.188;7.838;2022-12-11T00:00:03;94.25;;;36.95;;
29370;SDS011;16357;52.188;7.838;2022-12-11T00:02:30;79.22;;;32.90;;
29370;SDS011;16357;52.188;7.838;2022-12-11T00:04:57;88.32;;;33.42;;
29370;SDS011;16357;52.188;7.838;2022-12-11T00:07:23;88.90;;;34.70;;
29370;SDS011;16357;52.188;7.838;2022-12-11T00:09:50;87.93;;;33.60;;
29370;SDS011;16357;52.188;7.838;2022-12-11T00:12:16;90.45;;;35.28;;
29370;SDS011;16357;52.188;7.838;2022-12-11T00:14:43;83.35;;;34.45;;
29370;SDS011;16357;52.188;7.838;2022-12-11T00:17:09;91.28;;;33.97;;
29370;SDS011;16357;52.188;7.838;2022-12-11T00:19:35;93.00;;;34.20;;
29370;SDS011;16357;52.188;7.838;2022-12-11T00:22:02;86.97;;;32.13;;
29370;SDS011;16357;52.188;7.838;2022-12-11T00:24:28;74.97;;;30.08;;
29370;SDS011;16357;52.188;7.838;2022-12-11T00:26:55;81.90;;;31.52;;
29370;SDS011;16357;52.188;7.838;2022-12-11T00:29:21;72.97;;;29.27;;
29370;SDS011;16357;52.188;7.838;2022-12-11T00:31:48;73.32;;;28.45;;
29370;SDS011;16357;52.188;7.838;2022-12-11T00:34:14;75.75;;;28.92;;
29370;SDS011;16357;52.188;7.838;2022-12-11T00:36:40;70.78;;;28.65;;
29370;SDS011;16357;52.188;7.838;2022-12-11T00:39:07;64.80;;;26.77;;
29370;SDS011;16357;52.188;7.838;2022-12-11T00:41:33;72.13;;;26.48;;
29370;SDS011;16357;52.188;7.838;2022-12-11T00:44:00;64.85;;;24.92;;
29370;SDS011;16357;52.188;7.838;2022-12-11T00:46:27;64.15;;;26.10;;
29370;SDS011;16357;52.188;7.838;2022-12-11T00:48:53;68.03;;;27.15;;
29370;SDS011;16357;52.188;7.838;2022-12-11T00:51:20;62.70;;;24.88;;
29370;SDS011;16357;52.188;7.838;2022-12-11T00:53:47;62.05;;;24.00;;
29370;SDS011;16357;52.188;7.838;2022-12-11T00:56:14;61.50;;;24.10;;
29370;SDS011;16357;52.188;7.838;2022-12-11T00:58:44;56.58;;;23.25;;
29370;SDS011;16357;52.188;7.838;2022-12-11T01:01:12;58.13;;;23.20;;
29370;SDS011;16357;52.188;7.838;2022-12-11T01:03:44;67.43;;;24.20;;
29370;SDS011;16357;52.188;7.838;2022-12-11T01:06:15;62.78;;;24.55;;
29370;SDS011;16357;52.188;7.838;2022-12-11T01:08:43;63.40;;;23.30;;
29370;SDS011;16357;52.188;7.838;2022-12-11T01:11:11;71.05;;;25.88;;
29370;SDS011;16357;52.188;7.838;2022-12-11T01:13:40;64.93;;;23.42;;
29370;SDS011;16357;52.188;7.838;2022-12-11T01:16:07;76.47;;;26.33;;
29370;SDS011;16357;52.188;7.838;2022-12-11T01:18:36;72.10;;;24.98;;
29370;SDS011;16357;52.188;7.838;2022-12-11T01:21:09;67.22;;;24.85;;
29370;SDS011;16357;52.188;7.838;2022-12-11T01:23:37;50.27;;;19.13;;
29370;SDS011;16357;52.188;7.838;2022-12-11T01:26:08;66.70;;;24.95;;
29370;SDS011;16357;52.188;7.838;2022-12-11T01:28:36;69.82;;;25.90;;
29370;SDS011;16357;52.188;7.838;2022-12-11T01:31:06;66.30;;;24.20;;
29370;SDS011;16357;52.188;7.838;2022-12-11T01:33:36;64.35;;;24.08;;
29370;SDS011;16357;52.188;7.838;2022-12-11T01:36:10;72.93;;;25.50;;
29370;SDS011;16357;52.188;7.838;2022-12-11T01:41:06;56.92;;;20.88;;
29370;SDS011;16357;52.188;7.838;2022-12-11T01:43:33;68.00;;;24.15;;
29370;SDS011;16357;52.188;7.838;2022-12-11T01:46:00;66.15;;;24.52;;
29370;SDS011;16357;52.188;7.838;2022-12-11T01:48:27;63.28;;;24.83;;
29370;SDS011;16357;52.188;7.838;2022-12-11T01:51:00;67.68;;;24.90;;
29370;SDS011;16357;52.188;7.838;2022-12-11T01:53:30;67.13;;;25.77;;
29370;SDS011;16357;52.188;7.838;2022-12-11T01:56:00;69.78;;;26.63;;
29370;SDS011;16357;52.188;7.838;2022-12-11T01:58:28;71.57;;;28.10;;
29370;SDS011;16357;52.188;7.838;2022-12-11T02:00:58;69.03;;;25.42;;
29370;SDS011;16357;52.188;7.838;2022-12-11T02:03:26;61.53;;;24.60;;
29370;SDS011;16357;52.188;7.838;2022-12-11T02:05:52;56.60;;;22.55;;
29370;SDS011;16357;52.188;7.838;2022-12-11T02:08:19;60.00;;;23.20;;
29370;SDS011;16357;52.188;7.838;2022-12-11T02:13:27;57.63;;;21.38;;
29370;SDS011;16357;52.188;7.838;2022-12-11T02:18:46;51.83;;;20.42;;
29370;SDS011;16357;52.188;7.838;2022-12-11T02:21:22;51.15;;;19.05;;
29370;SDS011;16357;52.188;7.838;2022-12-11T02:23:59;53.33;;;18.95;;
29370;SDS011;16357;52.188;7.838;2022-12-11T02:27:06;46.92;;;17.55;;
29370;SDS011;16357;52.188;7.838;2022-12-11T02:29:35;45.47;;;18.92;;
29370;SDS011;16357;52.188;7.838;2022-12-11T02:38:00;48.45;;;18.77;;
29370;SDS011;16357;52.188;7.838;2022-12-11T02:40:47;40.00;;;16.63;;
29370;SDS011;16357;52.188;7.838;2022-12-11T02:43:17;47.85;;;18.83;;
29370;SDS011;16357;52.188;7.838;2022-12-11T02:45:45;48.65;;;18.73;;
29370;SDS011;16357;52.188;7.838;2022-12-11T02:48:13;49.13;;;18.20;;
29370;SDS011;16357;52.188;7.838;2022-12-11T02:50:43;49.60;;;19.33;;
29370;SDS011;16357;52.188;7.838;2022-12-11T02:53:15;50.72;;;19.00;;
29370;SDS011;16357;52.188;7.838;2022-12-11T02:55:45;47.53;;;19.17;;
29370;SDS011;16357;52.188;7.838;2022-12-11T02:58:17;45.63;;;18.70;;
29370;SDS011;16357;52.188;7.838;2022-12-11T03:00:47;40.88;;;17.77;;
29370;SDS011;16357;52.188;7.838;2022-12-11T03:03:13;51.05;;;20.00;;
29370;SDS011;16357;52.188;7.838;2022-12-11T03:05:40;42.58;;;18.05;;
29370;SDS011;16357;52.188;7.838;2022-12-11T03:08:07;42.53;;;17.45;;
29370;SDS011;16357;52.188;7.838;2022-12-11T03:10:34;47.42;;;18.70;;
29370;SDS011;16357;52.188;7.838;2022-12-11T03:13:00;47.72;;;19.23;;
29370;SDS011;16357;52.188;7.838;2022-12-11T03:15:31;41.95;;;18.25;;
29370;SDS011;16357;52.188;7.838;2022-12-11T03:18:20;42.58;;;17.30;;
29370;SDS011;16357;52.188;7.838;2022-12-11T03:23:51;40.88;;;16.42;;
29370;SDS011;16357;52.188;7.838;2022-12-11T03:26:28;35.00;;;15.20;;
29370;SDS011;16357;52.188;7.838;2022-12-11T03:28:59;37.05;;;16.25;;
29370;SDS011;16357;52.188;7.838;2022-12-11T03:31:30;43.50;;;16.50;;
29370;SDS011;16357;52.188;7.838;2022-12-11T03:34:08;36.28;;;14.98;;
29370;SDS011;16357;52.188;7.838;2022-12-11T03:36:39;40.92;;;15.63;;
29370;SDS011;16357;52.188;7.838;2022-12-11T03:39:10;42.80;;;17.23;;
29370;SDS011;16357;52.188;7.838;2022-12-11T03:41:44;37.55;;;15.75;;
29370;SDS011;16357;52.188;7.838;2022-12-11T03:44:13;37.75;;;15.80;;
29370;SDS011;16357;52.188;7.838;2022-12-11T03:46:41;35.03;;;15.88;;
29370;SDS011;16357;52.188;7.838;2022-12-11T03:49:19;32.22;;;15.55;;
29370;SDS011;16357;52.188;7.838;2022-12-11T03:51:49;35.90;;;15.00;;
29370;SDS011;16357;52.188;7.838;2022-12-11T03:54:19;36.60;;;15.48;;
29370;SDS011;16357;52.188;7.838;2022-12-11T03:56:46;36.50;;;15.60;;
29370;SDS011;16357;52.188;7.838;2022-12-11T03:59:16;33.65;;;14.57;;
29370;SDS011;16357;52.188;7.838;2022-12-11T04:01:42;33.35;;;14.30;;
29370;SDS011;16357;52.188;7.838;2022-12-11T04:04:09;32.72;;;14.80;;
29370;SDS011;16357;52.188;7.838;2022-12-11T04:06:35;35.80;;;15.48;;
29370;SDS011;16357;52.188;7.838;2022-12-11T04:09:02;32.30;;;14.57;;
29370;SDS011;16357;52.188;7.838;2022-12-11T04:11:28;31.92;;;14.68;;
29370;SDS011;16357;52.188;7.838;2022-12-11T04:14:01;35.67;;;14.63;;
29370;SDS011;16357;52.188;7.838;2022-12-11T04:19:13;28.27;;;12.27;;
29370;SDS011;16357;52.188;7.838;2022-12-11T04:22:00;37.60;;;13.18;;
29370;SDS011;16357;52.188;7.838;2022-12-11T04:24:48;32.63;;;13.82;;
29370;SDS011;16357;52.188;7.838;2022-12-11T04:27:15;28.20;;;13.40;;
29370;SDS011;16357;52.188;7.838;2022-12-11T04:30:04;32.05;;;13.52;;
29370;SDS011;16357;52.188;7.838;2022-12-11T04:32:32;34.17;;;14.95;;
29370;SDS011;16357;52.188;7.838;2022-12-11T04:34:58;33.05;;;13.93;;
29370;SDS011;16357;52.188;7.838;2022-12-11T04:37:25;29.98;;;13.35;;
29370;SDS011;16357;52.188;7.838;2022-12-11T04:39:52;29.77;;;13.70;;
29370;SDS011;16357;52.188;7.838;2022-12-11T04:42:19;32.75;;;14.52;;
29370;SDS011;16357;52.188;7.838;2022-12-11T04:44:45;30.30;;;13.68;;
29370;SDS011;16357;52.188;7.838;2022-12-11T04:47:12;32.03;;;13.90;;
29370;SDS011;16357;52.188;7.838;2022-12-11T04:49:38;30.42;;;14.23;;
29370;SDS011;16357;52.188;7.838;2022-12-11T04:52:05;31.83;;;14.23;;
29370;SDS011;16357;52.188;7.838;2022-12-11T04:54:31;34.53;;;14.73;;
29370;SDS011;16357;52.188;7.838;2022-12-11T04:56:58;33.40;;;14.38;;
29370;SDS011;16357;52.188;7.838;2022-12-11T04:59:24;30.88;;;13.55;;
29370;SDS011;16357;52.188;7.838;2022-12-11T05:01:50;32.40;;;13.77;;
29370;SDS011;16357;52.188;7.838;2022-12-11T05:04:17;29.17;;;13.18;;
29370;SDS011;16357;52.188;7.838;2022-12-11T05:06:43;27.42;;;13.07;;
29370;SDS011;16357;52.188;7.838;2022-12-11T05:09:10;29.98;;;13.10;;
29370;SDS011;16357;52.188;7.838;2022-12-11T05:11:38;29.23;;;13.40;;
29370;SDS011;16357;52.188;7.838;2022-12-11T05:14:04;29.67;;;13.73;;
29370;SDS011;16357;52.188;7.838;2022-12-11T05:16:31;32.78;;;13.80;;
29370;SDS011;16357;52.188;7.838;2022-12-11T05:18:57;27.35;;;12.63;;
29370;SDS011;16357;52.188;7.838;2022-12-11T05:21:23;29.52;;;13.60;;
29370;SDS011;16357;52.188;7.838;2022-12-11T05:23:55;32.25;;;13.70;;
29370;SDS011;16357;52.188;7.838;2022-12-11T05:26:21;32.00;;;13.93;;
29370;SDS011;16357;52.188;7.838;2022-12-11T05:28:51;28.30;;;13.65;;
29370;SDS011;16357;52.188;7.838;2022-12-11T05:31:20;25.13;;;12.52;;
29370;SDS011;16357;52.188;7.838;2022-12-11T05:33:49;31.73;;;14.23;;
29370;SDS011;16357;52.188;7.838;2022-12-11T05:36:17;28.27;;;12.35;;
29370;SDS011;16357;52.188;7.838;2022-12-11T05:38:48;28.05;;;12.13;;
29370;SDS011;16357;52.188;7.838;2022-12-11T05:41:17;26.30;;;12.43;;
29370;SDS011;16357;52.188;7.838;2022-12-11T05:43:45;28.45;;;12.35;;
29370;SDS011;16357;52.188;7.838;2022-12-11T05:46:13;26.45;;;12.20;;
29370;SDS011;16357;52.188;7.838;2022-12-11T05:48:52;27.50;;;12.45;;
29370;SDS011;16357;52.188;7.838;2022-12-11T05:51:20;32.05;;;14.30;;
29370;SDS011;16357;52.188;7.838;2022-12-11T05:53:47;29.38;;;13.15;;
29370;SDS011;16357;52.188;7.838;2022-12-11T05:56:16;26.60;;;12.48;;
29370;SDS011;16357;52.188;7.838;2022-12-11T05:58:45;24.88;;;11.93;;
29370;SDS011;16357;52.188;7.838;2022-12-11T06:01:17;28.70;;;13.27;;
29370;SDS011;16357;52.188;7.838;2022-12-11T06:03:48;31.73;;;13.15;;
29370;SDS011;16357;52.188;7.838;2022-12-11T06:06:15;32.08;;;13.18;;
29370;SDS011;16357;52.188;7.838;2022-12-11T06:08:42;30.83;;;14.45;;
29370;SDS011;16357;52.188;7.838;2022-12-11T06:11:10;31.17;;;13.23;;
29370;SDS011;16357;52.188;7.838;2022-12-11T06:13:38;31.13;;;13.43;;
29370;SDS011;16357;52.188;7.838;2022-12-11T06:16:05;31.13;;;14.07;;
29370;SDS011;16357;52.188;7.838;2022-12-11T06:18:36;25.73;;;12.10;;
29370;SDS011;16357;52.188;7.838;2022-12-11T06:21:11;30.33;;;13.65;;
29370;SDS011;16357;52.188;7.838;2022-12-11T06:23:42;29.42;;;13.05;;
29370;SDS011;16357;52.188;7.838;2022-12-11T06:26:09;27.83;;;13.63;;
29370;SDS011;16357;52.188;7.838;2022-12-11T06:28:37;32.10;;;14.25;;
29370;SDS011;16357;52.188;7.838;2022-12-11T06:31:04;28.85;;;12.95;;
29370;SDS011;16357;52.188;7.838;2022-12-11T06:33:32;30.23;;;13.13;;
29370;SDS011;16357;52.188;7.838;2022-12-11T06:36:02;32.00;;;13.48;;
29370;SDS011;16357;52.188;7.838;2022-12-11T06:38:30;28.05;;;13.35;;
29370;SDS011;16357;52.188;7.838;2022-12-11T06:40:58;32.40;;;13.43;;
29370;SDS011;16357;52.188;7.838;2022-12-11T06:43:26;31.35;;;12.95;;
29370;SDS011;16357;52.188;7.838;2022-12-11T06:45:53;31.58;;;13.10;;
29370;SDS011;16357;52.188;7.838;2022-12-11T06:48:25;33.08;;;13.75;;
29370;SDS011;16357;52.188;7.838;2022-12-11T06:50:52;29.00;;;13.35;;
29370;SDS011;16357;52.188;7.838;2022-12-11T06:53:19;34.58;;;13.75;;
29370;SDS011;16357;52.188;7.838;2022-12-11T06:55:45;33.97;;;15.52;;
29370;SDS011;16357;52.188;7.838;2022-12-11T06:58:12;31.25;;;15.10;;
29370;SDS011;16357;52.188;7.838;2022-12-11T07:00:39;34.20;;;15.38;;
29370;SDS011;16357;52.188;7.838;2022-12-11T07:03:06;28.30;;;13.73;;
29370;SDS011;16357;52.188;7.838;2022-12-11T07:05:33;35.70;;;14.77;;
29370;SDS011;16357;52.188;7.838;2022-12-11T07:07:59;33.58;;;14.73;;
29370;SDS011;16357;52.188;7.838;2022-12-11T07:10:26;29.83;;;13.93;;
29370;SDS011;16357;52.188;7.838;2022-12-11T07:12:53;29.10;;;14.20;;
29370;SDS011;16357;52.188;7.838;2022-12-11T07:15:22;28.00;;;13.45;;
29370;SDS011;16357;52.188;7.838;2022-12-11T07:17:48;26.83;;;12.30;;
29370;SDS011;16357;52.188;7.838;2022-12-11T07:20:15;30.30;;;14.63;;
29370;SDS011;16357;52.188;7.838;2022-12-11T07:22:42;30.05;;;13.02;;
29370;SDS011;16357;52.188;7.838;2022-12-11T07:25:12;30.30;;;13.65;;
29370;SDS011;16357;52.188;7.838;2022-12-11T07:34:53;27.83;;;12.00;;
29370;SDS011;16357;52.188;7.838;2022-12-11T07:37:20;29.25;;;13.40;;
29370;SDS011;16357;52.188;7.838;2022-12-11T07:39:46;31.25;;;13.23;;
29370;SDS011;16357;52.188;7.838;2022-12-11T07:42:14;27.15;;;13.32;;
29370;SDS011;16357;52.188;7.838;2022-12-11T07:44:40;38.05;;;15.73;;
29370;SDS011;16357;52.188;7.838;2022-12-11T07:47:06;32.88;;;13.98;;
29370;SDS011;16357;52.188;7.838;2022-12-11T07:49:33;29.80;;;14.07;;
29370;SDS011;16357;52.188;7.838;2022-12-11T07:51:59;31.65;;;13.70;;
29370;SDS011;16357;52.188;7.838;2022-12-11T07:54:25;34.42;;;14.35;;
29370;SDS011;16357;52.188;7.838;2022-12-11T07:56:52;31.17;;;14.02;;
29370;SDS011;16357;52.188;7.838;2022-12-11T07:59:19;33.90;;;15.60;;
29370;SDS011;16357;52.188;7.838;2022-12-11T08:01:46;33.58;;;15.13;;
29370;SDS011;16357;52.188;7.838;2022-12-11T08:04:12;34.53;;;15.30;;
29370;SDS011;16357;52.188;7.838;2022-12-11T08:06:40;33.28;;;14.73;;
29370;SDS011;16357;52.188;7.838;2022-12-11T08:09:09;31.55;;;13.95;;
29370;SDS011;16357;52.188;7.838;2022-12-11T08:11:46;29.42;;;13.80;;
29370;SDS011;16357;52.188;7.838;2022-12-11T08:14:14;33.45;;;14.90;;
29370;SDS011;16357;52.188;7.838;2022-12-11T08:16:40;34.97;;;15.55;;
29370;SDS011;16357;52.188;7.838;2022-12-11T08:19:12;31.52;;;14.23;;
29370;SDS011;16357;52.188;7.838;2022-12-11T08:21:38;34.75;;;14.55;;
29370;SDS011;16357;52.188;7.838;2022-12-11T08:24:05;29.25;;;14.02;;
29370;SDS011;16357;52.188;7.838;2022-12-11T08:26:32;30.50;;;13.77;;
29370;SDS011;16357;52.188;7.838;2022-12-11T08:28:59;28.70;;;12.70;;
29370;SDS011;16357;52.188;7.838;2022-12-11T08:31:26;27.85;;;12.65;;
29370;SDS011;16357;52.188;7.838;2022-12-11T08:33:54;30.42;;;13.55;;
29370;SDS011;16357;52.188;7.838;2022-12-11T08:36:21;28.73;;;12.98;;
29370;SDS011;16357;52.188;7.838;2022-12-11T08:38:49;27.92;;;13.43;;
29370;SDS011;16357;52.188;7.838;2022-12-11T08:41:18;25.67;;;12.80;;
29370;SDS011;16357;52.188;7.838;2022-12-11T08:43:47;29.65;;;13.05;;
29370;SDS011;16357;52.188;7.838;2022-12-11T08:46:14;28.38;;;12.60;;
29370;SDS011;16357;52.188;7.838;2022-12-11T08:48:41;30.88;;;12.88;;
29370;SDS011;16357;52.188;7.838;2022-12-11T08:51:12;25.73;;;12.13;;
29370;SDS011;16357;52.188;7.838;2022-12-11T08:53:39;27.45;;;12.80;;
29370;SDS011;16357;52.188;7.838;2022-12-11T08:56:07;24.15;;;11.68;;
29370;SDS011;16357;52.188;7.838;2022-12-11T08:58:36;26.95;;;12.35;;
29370;SDS011;16357;52.188;7.838;2022-12-11T09:01:07;29.88;;;13.85;;
29370;SDS011;16357;52.188;7.838;2022-12-11T09:03:35;23.48;;;12.23;;
29370;SDS011;16357;52.188;7.838;2022-12-11T09:06:03;27.50;;;13.02;;
29370;SDS011;16357;52.188;7.838;2022-12-11T09:08:34;25.02;;;12.05;;
29370;SDS011;16357;52.188;7.838;2022-12-11T09:11:04;25.98;;;11.82;;
29370;SDS011;16357;52.188;7.838;2022-12-11T09:13:33;24.27;;;10.95;;
29370;SDS011;16357;52.188;7.838;2022-12-11T09:16:05;23.60;;;10.95;;
29370;SDS011;16357;52.188;7.838;2022-12-11T09:18:33;27.02;;;12.38;;
29370;SDS011;16357;52.188;7.838;2022-12-11T09:21:00;27.90;;;13.52;;
29370;SDS011;16357;52.188;7.838;2022-12-11T09:23:33;24.88;;;11.95;;
29370;SDS011;16357;52.188;7.838;2022-12-11T09:26:07;27.85;;;12.48;;
29370;SDS011;16357;52.188;7.838;2022-12-11T09:28:38;24.48;;;12.15;;
29370;SDS011;16357;52.188;7.838;2022-12-11T09:31:16;22.27;;;10.80;;
29370;SDS011;16357;52.188;7.838;2022-12-11T09:33:45;24.98;;;11.73;;
29370;SDS011;16357;52.188;7.838;2022-12-11T09:36:11;26.60;;;12.10;;
29370;SDS011;16357;52.188;7.838;2022-12-11T09:38:38;28.23;;;11.93;;
29370;SDS011;16357;52.188;7.838;2022-12-11T09:46:13;27.17;;;11.57;;
29370;SDS011;16357;52.188;7.838;2022-12-11T09:48:42;21.90;;;10.98;;
29370;SDS011;16357;52.188;7.838;2022-12-11T09:51:21;21.38;;;11.38;;
29370;SDS011;16357;52.188;7.838;2022-12-11T09:54:05;23.17;;;10.15;;
29370;SDS011;16357;52.188;7.838;2022-12-11T09:56:32;21.85;;;10.07;;
29370;SDS011;16357;52.188;7.838;2022-12-11T09:59:12;22.02;;;10.50;;
29370;SDS011;16357;52.188;7.838;2022-12-11T10:01:59;24.02;;;10.75;;
29370;SDS011;16357;52.188;7.838;2022-12-11T10:07:05;19.30;;;9.95;;
29370;SDS011;16357;52.188;7.838;2022-12-11T10:09:57;20.17;;;9.73;;
29370;SDS011;16357;52.188;7.838;2022-12-11T10:15:36;21.83;;;8.93;;
29370;SDS011;16357;52.188;7.838;2022-12-11T10:18:10;18.98;;;8.77;;
29370;SDS011;16357;52.188;7.838;2022-12-11T10:20:40;21.02;;;10.05;;
29370;SDS011;16357;52.188;7.838;2022-12-11T10:23:09;20.92;;;10.23;;
29370;SDS011;16357;52.188;7.838;2022-12-11T10:25:45;20.58;;;9.85;;
29370;SDS011;16357;52.188;7.838;2022-12-11T10:28:17;17.38;;;9.05;;
29370;SDS011;16357;52.188;7.838;2022-12-11T10:33:33;17.55;;;8.68;;
29370;SDS011;16357;52.188;7.838;2022-12-11T10:36:06;14.52;;;8.20;;
29370;SDS011;16357;52.188;7.838;2022-12-11T10:38:41;15.57;;;8.52;;
29370;SDS011;16357;52.188;7.838;2022-12-11T10:41:10;16.90;;;8.98;;
29370;SDS011;16357;52.188;7.838;2022-12-11T10:43:40;18.13;;;9.15;;
29370;SDS011;16357;52.188;7.838;2022-12-11T10:46:21;18.70;;;9.32;;
29370;SDS011;16357;52.188;7.838;2022-12-11T10:48:51;15.07;;;8.32;;
29370;SDS011;16357;52.188;7.838;2022-12-11T10:51:20;17.50;;;8.60;;
29370;SDS011;16357;52.188;7.838;2022-12-11T10:53:50;15.75;;;8.35;;
29370;SDS011;16357;52.188;7.838;2022-12-11T10:56:25;17.35;;;8.57;;
29370;SDS011;16357;52.188;7.838;2022-12-11T10:58:53;16.40;;;8.52;;
29370;SDS011;16357;52.188;7.838;2022-12-11T11:01:23;16.52;;;8.63;;
29370;SDS011;16357;52.188;7.838;2022-12-11T11:06:44;18.10;;;10.00;;
29370;SDS011;16357;52.188;7.838;2022-12-11T11:09:25;18.08;;;9.73;;
29370;SDS011;16357;52.188;7.838;2022-12-11T11:11:54;17.63;;;9.38;;
29370;SDS011;16357;52.188;7.838;2022-12-11T11:14:21;16.42;;;8.68;;
29370;SDS011;16357;52.188;7.838;2022-12-11T11:16:51;18.52;;;9.43;;
29370;SDS011;16357;52.188;7.838;2022-12-11T11:19:32;20.23;;;9.82;;
29370;SDS011;16357;52.188;7.838;2022-12-11T11:22:03;20.50;;;9.05;;
29370;SDS011;16357;52.188;7.838;2022-12-11T11:24:34;18.25;;;9.35;;
29370;SDS011;16357;52.188;7.838;2022-12-11T11:27:10;16.83;;;9.27;;
29370;SDS011;16357;52.188;7.838;2022-12-11T11:29:40;15.68;;;8.55;;
29370;SDS011;16357;52.188;7.838;2022-12-11T11:32:19;15.45;;;8.98;;
29370;SDS011;16357;52.188;7.838;2022-12-11T11:34:49;17.27;;;8.05;;
29370;SDS011;16357;52.188;7.838;2022-12-11T11:37:21;18.80;;;9.60;;
29370;SDS011;16357;52.188;7.838;2022-12-11T11:40:07;16.25;;;8.43;;
29370;SDS011;16357;52.188;7.838;2022-12-11T11:43:06;17.92;;;9.65;;
29370;SDS011;16357;52.188;7.838;2022-12-11T11:56:51;17.70;;;9.63;;
29370;SDS011;16357;52.188;7.838;2022-12-11T11:59:26;21.48;;;11.07;;
29370;SDS011;16357;52.188;7.838;2022-12-11T12:01:57;19.27;;;10.32;;
29370;SDS011;16357;52.188;7.838;2022-12-11T12:04:24;18.77;;;9.90;;
29370;SDS011;16357;52.188;7.838;2022-12-11T12:06:59;22.75;;;11.80;;
29370;SDS011;16357;52.188;7.838;2022-12-11T12:09:45;22.00;;;12.07;;
29370;SDS011;16357;52.188;7.838;2022-12-11T12:15:34;21.67;;;11.10;;
29370;SDS011;16357;52.188;7.838;2022-12-11T12:18:12;20.02;;;10.65;;
29370;SDS011;16357;52.188;7.838;2022-12-11T12:26:22;16.75;;;8.80;;
29370;SDS011;16357;52.188;7.838;2022-12-11T12:29:13;21.65;;;10.68;;
29370;SDS011;16357;52.188;7.838;2022-12-11T12:32:07;17.23;;;9.20;;
29370;SDS011;16357;52.188;7.838;2022-12-11T12:49:39;19.45;;;10.00;;
29370;SDS011;16357;52.188;7.838;2022-12-11T12:52:18;19.77;;;10.05;;
29370;SDS011;16357;52.188;7.838;2022-12-11T12:54:50;19.45;;;10.15;;
29370;SDS011;16357;52.188;7.838;2022-12-11T12:57:38;22.42;;;11.10;;
29370;SDS011;16357;52.188;7.838;2022-12-11T13:00:10;20.85;;;10.05;;
29370;SDS011;16357;52.188;7.838;2022-12-11T13:02:48;21.10;;;10.82;;
29370;SDS011;16357;52.188;7.838;2022-12-11T13:05:22;17.02;;;9.65;;
29370;SDS011;16357;52.188;7.838;2022-12-11T13:07:52;19.50;;;10.48;;
29370;SDS011;16357;52.188;7.838;2022-12-11T13:10:31;18.83;;;9.68;;
29370;SDS011;16357;52.188;7.838;2022-12-11T13:13:00;22.10;;;10.57;;
29370;SDS011;16357;52.188;7.838;2022-12-11T13:15:35;20.30;;;10.88;;
29370;SDS011;16357;52.188;7.838;2022-12-11T13:23:51;18.17;;;9.50;;
29370;SDS011;16357;52.188;7.838;2022-12-11T13:26:28;22.10;;;11.30;;
29370;SDS011;16357;52.188;7.838;2022-12-11T13:28:56;18.33;;;9.93;;
29370;SDS011;16357;52.188;7.838;2022-12-11T13:31:31;19.25;;;9.95;;
29370;SDS011;16357;52.188;7.838;2022-12-11T13:34:20;19.48;;;10.57;;
29370;SDS011;16357;52.188;7.838;2022-12-11T13:36:49;21.48;;;10.32;;
29370;SDS011;16357;52.188;7.838;2022-12-11T13:39:18;18.73;;;10.07;;
29370;SDS011;16357;52.188;7.838;2022-12-11T13:41:51;17.77;;;9.75;;
29370;SDS011;16357;52.188;7.838;2022-12-11T13:44:26;20.20;;;10.88;;
29370;SDS011;16357;52.188;7.838;2022-12-11T13:46:54;18.00;;;9.90;;
29370;SDS011;16357;52.188;7.838;2022-12-11T13:49:24;19.83;;;10.40;;
29370;SDS011;16357;52.188;7.838;2022-12-11T13:51:54;20.50;;;10.30;;
29370;SDS011;16357;52.188;7.838;2022-12-11T13:54:23;19.55;;;10.75;;
29370;SDS011;16357;52.188;7.838;2022-12-11T13:56:55;21.25;;;10.65;;
29370;SDS011;16357;52.188;7.838;2022-12-11T13:59:30;19.80;;;10.25;;
29370;SDS011;16357;52.188;7.838;2022-12-11T14:02:14;21.10;;;11.00;;
29370;SDS011;16357;52.188;7.838;2022-12-11T14:04:53;24.73;;;11.88;;
29370;SDS011;16357;52.188;7.838;2022-12-11T14:07:25;20.30;;;11.45;;
29370;SDS011;16357;52.188;7.838;2022-12-11T14:10:04;20.23;;;11.32;;
29370;SDS011;16357;52.188;7.838;2022-12-11T14:12:34;23.20;;;11.32;;
29370;SDS011;16357;52.188;7.838;2022-12-11T14:15:02;19.30;;;10.65;;
29370;SDS011;16357;52.188;7.838;2022-12-11T14:17:30;19.77;;;11.02;;
29370;SDS011;16357;52.188;7.838;2022-12-11T14:19:59;18.65;;;10.18;;
29370;SDS011;16357;52.188;7.838;2022-12-11T14:22:32;19.25;;;10.63;;
29370;SDS011;16357;52.188;7.838;2022-12-11T14:24:59;20.05;;;10.88;;
29370;SDS011;16357;52.188;7.838;2022-12-11T14:27:30;22.40;;;11.43;;
29370;SDS011;16357;52.188;7.838;2022-12-11T14:29:57;24.85;;;12.80;;
29370;SDS011;16357;52.188;7.838;2022-12-11T14:32:30;21.15;;;11.23;;
29370;SDS011;16357;52.188;7.838;2022-12-11T14:35:01;26.05;;;13.13;;
29370;SDS011;16357;52.188;7.838;2022-12-11T14:37:31;25.13;;;13.02;;
29370;SDS011;16357;52.188;7.838;2022-12-11T14:40:02;25.13;;;12.98;;
29370;SDS011;16357;52.188;7.838;2022-12-11T14:42:40;24.70;;;13.00;;
29370;SDS011;16357;52.188;7.838;2022-12-11T14:45:21;25.38;;;13.25;;
29370;SDS011;16357;52.188;7.838;2022-12-11T14:47:55;24.70;;;13.47;;
29370;SDS011;16357;52.188;7.838;2022-12-11T14:50:25;22.50;;;12.25;;
29370;SDS011;16357;52.188;7.838;2022-12-11T14:52:58;22.05;;;11.60;;
29370;SDS011;16357;52.188;7.838;2022-12-11T14:55:32;27.45;;;12.38;;
29370;SDS011;16357;52.188;7.838;2022-12-11T14:58:02;20.90;;;11.48;;
29370;SDS011;16357;52.188;7.838;2022-12-11T15:00:33;23.75;;;12.02;;
29370;SDS011;16357;52.188;7.838;2022-12-11T15:03:05;22.08;;;11.40;;
29370;SDS011;16357;52.188;7.838;2022-12-11T15:05:32;22.95;;;12.07;;
29370;SDS011;16357;52.188;7.838;2022-12-11T15:10:36;26.05;;;13.32;;
29370;SDS011;16357;52.188;7.838;2022-12-11T15:13:06;25.30;;;13.18;;
29370;SDS011;16357;52.188;7.838;2022-12-11T15:15:42;22.20;;;12.30;;
29370;SDS011;16357;52.188;7.838;2022-12-11T15:18:22;26.63;;;13.48;;
29370;SDS011;16357;52.188;7.838;2022-12-11T15:20:55;23.00;;;12.43;;
29370;SDS011;16357;52.188;7.838;2022-12-11T15:23:25;24.33;;;11.90;;
29370;SDS011;16357;52.188;7.838;2022-12-11T15:25:53;22.67;;;11.70;;
29370;SDS011;16357;52.188;7.838;2022-12-11T15:28:31;24.58;;;13.13;;
29370;SDS011;16357;52.188;7.838;2022-12-11T15:31:00;24.75;;;13.23;;
29370;SDS011;16357;52.188;7.838;2022-12-11T15:33:30;24.15;;;12.32;;
29370;SDS011;16357;52.188;7.838;2022-12-11T15:38:38;20.90;;;11.38;;
29370;SDS011;16357;52.188;7.838;2022-12-11T15:41:14;23.52;;;12.35;;
29370;SDS011;16357;52.188;7.838;2022-12-11T15:43:42;24.63;;;11.88;;
29370;SDS011;16357;52.188;7.838;2022-12-11T15:46:10;20.65;;;11.07;;
29370;SDS011;16357;52.188;7.838;2022-12-11T15:48:36;23.10;;;11.63;;
29370;SDS011;16357;52.188;7.838;2022-12-11T15:51:02;24.27;;;12.45;;
29370;SDS011;16357;52.188;7.838;2022-12-11T15:53:29;22.63;;;12.30;;
29370;SDS011;16357;52.188;7.838;2022-12-11T15:55:55;27.13;;;13.23;;
29370;SDS011;16357;52.188;7.838;2022-12-11T15:58:22;22.98;;;12.88;;
29370;SDS011;16357;52.188;7.838;2022-12-11T16:00:50;22.75;;;12.25;;
29370;SDS011;16357;52.188;7.838;2022-12-11T16:03:18;23.50;;;12.40;;
29370;SDS011;16357;52.188;7.838;2022-12-11T16:05:47;24.27;;;12.50;;
29370;SDS011;16357;52.188;7.838;2022-12-11T16:08:16;24.90;;;12.95;;
29370;SDS011;16357;52.188;7.838;2022-12-11T16:10:44;23.45;;;12.48;;